createdAt,value
2022-12-16T00:02:25.846Z,60.993
2022-12-16T00:17:28.460Z,60.689
2022-12-16T00:32:30.805Z,60.692
2022-12-16T00:47:33.130Z,61.697
2022-12-16T01:02:35.625Z,61.038
2022-12-16T01:17:38.050Z,61.832
2022-12-16T01:32:40.295Z,61.618
2022-12-16T01:47:42.668Z,61.279
2022-12-16T02:02:45.193Z,61.608
2022-12-16T02:17:47.604Z,62.432
2022-12-16T02:32:49.996Z,62.807
2022-12-16T02:47:52.329Z,64.107
2022-12-16T03:02:54.787Z,62.236
2022-12-16T03:36:15.181Z,63.238
2022-12-16T04:09:37.684Z,65.122
2022-12-16T05:00:13.217Z,68.988
2022-12-16T05:15:15.556Z,68.554
2022-12-16T05:30:18.087Z,66.62
2022-12-16T05:45:20.424Z,66.842
2022-12-16T06:00:22.678Z,67.71
2022-12-16T06:15:24.943Z,66.037
2022-12-16T06:30:27.360Z,70.563
2022-12-16T06:45:34.508Z,67.468
2022-12-16T07:00:37.488Z,67.483
2022-12-16T07:15:39.796Z,66.413
2022-12-16T07:30:42.285Z,70.859
2022-12-16T07:49:00.088Z,69.174
2022-12-16T08:04:02.561Z,67.366
2022-12-16T08:19:10.529Z,67.781
2022-12-16T08:34:13.386Z,67.528
2022-12-16T09:04:17.885Z,68.473
2022-12-16T09:19:20.129Z,68.681
2022-12-16T09:34:22.370Z,67.002
2022-12-16T09:49:24.617Z,65.561
2022-12-16T10:04:26.972Z,65.906
2022-12-16T10:19:29.259Z,64.813
2022-12-16T10:34:31.513Z,66.813
2022-12-16T10:49:33.855Z,66.009
2022-12-16T11:04:36.490Z,65.392
2022-12-16T11:19:39.742Z,65.195
2022-12-16T11:34:42.029Z,67.371
2022-12-16T11:49:44.275Z,69.541
2022-12-16T12:04:46.661Z,67.709
2022-12-16T12:19:48.917Z,69.761
2022-12-16T12:34:51.128Z,67.986
2022-12-16T12:49:53.459Z,66.861
2022-12-16T13:04:56.578Z,69.314
2022-12-16T13:19:58.832Z,67.791
2022-12-16T13:35:01.114Z,66.552
2022-12-16T13:50:03.287Z,66.887
2022-12-16T14:05:05.664Z,64.778
2022-12-16T14:20:07.892Z,65.144
2022-12-16T14:35:10.190Z,66.029
2022-12-16T14:50:12.456Z,66.77
2022-12-16T15:05:14.687Z,66.194
2022-12-16T15:20:16.861Z,67.513
2022-12-16T15:35:19.187Z,67.819
2022-12-16T15:50:21.531Z,66.306
2022-12-16T16:05:23.779Z,67.141
2022-12-16T16:20:25.986Z,66.319
2022-12-16T16:35:28.385Z,66.651
2022-12-16T16:50:30.667Z,68.428
2022-12-16T17:05:32.865Z,65.963
2022-12-16T17:20:35.125Z,65.403
2022-12-16T17:35:37.362Z,65.934
2022-12-16T17:50:39.584Z,65.533
2022-12-16T18:05:44.640Z,64.873
2022-12-16T18:20:47.394Z,66.947
2022-12-16T18:35:49.601Z,66.273
2022-12-16T18:50:52.045Z,66.694
2022-12-16T19:05:55.646Z,64.058
2022-12-16T19:20:57.852Z,64.241
2022-12-16T19:36:00.023Z,64.319
2022-12-16T19:51:02.229Z,63.936
2022-12-16T20:06:04.559Z,67.348
2022-12-16T20:21:06.793Z,67.389
2022-12-16T20:36:09.044Z,64.894
2022-12-16T20:51:11.417Z,64.785
2022-12-16T21:06:13.617Z,63.375
2022-12-16T21:21:16.170Z,63.921
2022-12-16T21:36:18.379Z,67.032
2022-12-16T21:51:20.600Z,64.552
2022-12-16T22:06:22.847Z,64.73
2022-12-16T22:21:25.209Z,64.145
2022-12-16T22:36:27.426Z,64.045
2022-12-16T22:51:29.687Z,65.431
2022-12-16T23:06:31.894Z,65.261
2022-12-16T23:21:34.081Z,65.557
2022-12-16T23:36:36.352Z,65.666
2022-12-16T23:51:38.618Z,64.8
